createdAt,value
2018-06-27T00:00:00.870Z,24.10
2018-06-27T00:03:04.385Z,25.37
2018-06-27T00:06:07.466Z,27.37
2018-06-27T00:09:10.533Z,24.97
2018-06-27T00:12:13.590Z,25.20
2018-06-27T00:15:16.669Z,27.37
2018-06-27T00:18:19.760Z,27.43
2018-06-27T00:21:22.843Z,27.23
2018-06-27T00:24:25.717Z,32.83
2018-06-27T00:27:28.778Z,29.87
2018-06-27T00:30:31.845Z,31.17
2018-06-27T00:33:34.901Z,31.47
2018-06-27T00:36:37.748Z,30.00
2018-06-27T00:39:40.823Z,31.03
2018-06-27T00:42:43.898Z,29.93
2018-06-27T00:45:46.964Z,31.73
2018-06-27T00:48:50.021Z,32.30
2018-06-27T00:51:53.077Z,29.27
2018-06-27T00:54:56.133Z,35.03
2018-06-27T00:57:58.984Z,29.13
2018-06-27T01:01:02.973Z,42.47
2018-06-27T01:04:06.290Z,43.23
2018-06-27T01:07:09.353Z,28.03
2018-06-27T01:10:12.441Z,28.67
2018-06-27T01:13:15.516Z,34.00
2018-06-27T01:16:18.613Z,34.63
2018-06-27T01:19:21.685Z,28.67
2018-06-27T01:22:24.537Z,30.30
2018-06-27T01:25:27.617Z,41.43
2018-06-27T01:28:30.686Z,31.93
2018-06-27T01:31:33.770Z,31.33
2018-06-27T01:34:36.839Z,32.43
2018-06-27T01:37:39.700Z,36.53
2018-06-27T01:40:42.781Z,38.33
2018-06-27T01:43:45.878Z,34.07
2018-06-27T01:46:48.981Z,37.37
2018-06-27T01:49:52.049Z,32.47
2018-06-27T01:52:55.154Z,36.03
2018-06-27T01:55:58.263Z,35.57
2018-06-27T01:59:01.125Z,34.03
2018-06-27T02:02:04.216Z,44.87
2018-06-27T02:05:07.293Z,44.57
2018-06-27T02:08:10.398Z,37.10
2018-06-27T02:11:13.480Z,38.60
2018-06-27T02:14:16.573Z,42.70
2018-06-27T02:17:19.681Z,37.93
2018-06-27T02:20:22.771Z,43.07
2018-06-27T02:23:25.865Z,41.67
2018-06-27T02:26:28.945Z,46.60
2018-06-27T02:29:32.057Z,44.27
2018-06-27T02:32:35.137Z,43.87
2018-06-27T02:35:38.221Z,48.03
2018-06-27T02:38:41.273Z,49.60
2018-06-27T02:41:44.360Z,41.33
2018-06-27T02:44:47.432Z,45.77
2018-06-27T02:47:50.309Z,45.10
2018-06-27T02:50:53.158Z,44.77
2018-06-27T02:53:56.232Z,46.50
2018-06-27T02:56:59.314Z,47.87
2018-06-27T03:00:02.374Z,43.50
2018-06-27T03:03:05.264Z,49.00
2018-06-27T03:06:08.365Z,45.03
2018-06-27T03:09:11.923Z,45.57
2018-06-27T03:12:14.998Z,45.63
2018-06-27T03:15:18.081Z,49.13
2018-06-27T03:18:21.161Z,46.10
2018-06-27T03:21:24.985Z,47.63
2018-06-27T03:24:28.061Z,52.30
2018-06-27T03:27:31.161Z,50.73
2018-06-27T03:30:35.349Z,49.13
2018-06-27T03:33:38.499Z,45.07
2018-06-27T03:36:41.545Z,57.53
2018-06-27T03:39:44.643Z,52.60
2018-06-27T03:42:47.726Z,49.63
2018-06-27T03:45:50.817Z,48.57
2018-06-27T03:48:53.942Z,50.83
2018-06-27T03:51:57.105Z,45.57
2018-06-27T03:55:00.213Z,43.67
2018-06-27T03:58:03.318Z,44.60
2018-06-27T04:01:07.853Z,42.57
2018-06-27T04:04:10.937Z,44.77
2018-06-27T04:07:14.004Z,46.47
2018-06-27T04:10:17.098Z,43.17
2018-06-27T04:13:20.926Z,40.63
2018-06-27T04:16:23.906Z,42.60
2018-06-27T04:19:27.125Z,42.13
2018-06-27T04:22:32.773Z,41.23
2018-06-27T04:25:35.821Z,38.63
2018-06-27T04:28:38.898Z,37.57
2018-06-27T04:31:41.991Z,41.80
2018-06-27T04:34:45.185Z,38.97
2018-06-27T04:37:48.270Z,43.60
2018-06-27T04:40:51.342Z,36.77
2018-06-27T04:43:54.434Z,41.97
2018-06-27T04:46:57.501Z,39.17
2018-06-27T04:50:00.602Z,42.20
2018-06-27T04:53:03.700Z,39.00
2018-06-27T04:56:06.785Z,46.43
2018-06-27T04:59:09.916Z,37.53
2018-06-27T05:02:12.969Z,42.10
2018-06-27T05:05:16.068Z,45.13
2018-06-27T05:08:19.158Z,46.50
2018-06-27T05:11:22.253Z,44.20
2018-06-27T05:14:25.297Z,38.87
2018-06-27T05:17:28.369Z,34.93
2018-06-27T05:20:31.454Z,37.93
2018-06-27T05:23:34.549Z,36.27
2018-06-27T05:26:37.615Z,29.33
2018-06-27T05:29:40.477Z,32.93
2018-06-27T05:32:43.545Z,30.73
2018-06-27T05:35:46.630Z,34.03
2018-06-27T05:38:49.831Z,32.67
2018-06-27T05:41:52.895Z,35.37
2018-06-27T05:44:55.968Z,31.13
2018-06-27T05:47:58.809Z,28.27
2018-06-27T05:51:01.881Z,28.03
2018-06-27T05:54:04.974Z,27.03
2018-06-27T05:57:08.065Z,28.30
2018-06-27T06:00:12.419Z,22.73
2018-06-27T06:03:15.469Z,26.37
2018-06-27T06:06:18.567Z,20.40
2018-06-27T06:09:21.646Z,19.33
2018-06-27T06:12:24.794Z,20.07
2018-06-27T06:15:28.038Z,18.13
2018-06-27T06:18:31.389Z,19.23
2018-06-27T06:21:34.346Z,23.00
2018-06-27T06:24:41.073Z,19.57
2018-06-27T06:27:44.243Z,18.10
2018-06-27T06:30:47.414Z,16.03
2018-06-27T06:33:51.379Z,17.97
2018-06-27T06:36:54.586Z,15.88
2018-06-27T06:39:57.758Z,15.72
2018-06-27T06:43:00.938Z,14.85
2018-06-27T06:46:03.920Z,13.95
2018-06-27T06:49:07.087Z,11.40
2018-06-27T06:52:10.269Z,13.50
2018-06-27T06:55:13.433Z,14.33
2018-06-27T06:58:16.558Z,20.80
2018-06-27T07:01:19.769Z,17.57
2018-06-27T07:07:57.550Z,14.70
2018-06-27T07:11:01.252Z,15.00
2018-06-27T07:14:04.725Z,14.77
2018-06-27T07:17:08.453Z,15.17
2018-06-27T07:20:12.206Z,14.47
2018-06-27T07:23:16.178Z,14.87
2018-06-27T07:26:20.201Z,12.80
2018-06-27T07:29:24.508Z,12.27
2018-06-27T07:32:28.650Z,11.83
2018-06-27T07:35:32.791Z,10.83
2018-06-27T07:38:47.488Z,13.30
2018-06-27T07:41:50.726Z,10.10
2018-06-27T07:44:53.903Z,11.20
2018-06-27T07:47:57.439Z,10.58
2018-06-27T07:51:01.366Z,9.35
2018-06-27T07:54:04.631Z,8.78
2018-06-27T07:57:09.090Z,8.88
2018-06-27T08:00:12.267Z,8.70
2018-06-27T08:03:15.480Z,7.42
2018-06-27T08:06:18.753Z,7.20
2018-06-27T08:09:21.959Z,7.50
2018-06-27T08:12:24.947Z,8.13
2018-06-27T08:15:28.138Z,6.65
2018-06-27T08:18:40.704Z,10.32
2018-06-27T08:21:43.927Z,8.20
2018-06-27T08:24:47.147Z,7.12
2018-06-27T08:27:50.354Z,6.53
2018-06-27T08:30:53.295Z,6.80
2018-06-27T08:33:56.437Z,7.97
2018-06-27T08:36:59.430Z,7.63
2018-06-27T08:40:02.394Z,7.07
2018-06-27T08:43:05.591Z,7.65
2018-06-27T08:46:08.799Z,6.97
2018-06-27T08:49:12.007Z,6.77
2018-06-27T08:52:15.227Z,7.80
2018-06-27T08:55:18.366Z,9.80
2018-06-27T08:58:21.591Z,7.97
2018-06-27T09:01:24.754Z,9.53
2018-06-27T09:04:27.902Z,9.27
2018-06-27T09:07:31.095Z,8.23
2018-06-27T09:10:34.395Z,7.13
2018-06-27T09:13:37.627Z,5.37
2018-06-27T09:16:40.814Z,7.47
2018-06-27T09:19:44.068Z,4.97
2018-06-27T09:22:47.899Z,4.60
2018-06-27T09:25:51.162Z,5.87
2018-06-27T09:28:54.424Z,6.57
2018-06-27T09:31:57.663Z,4.60
2018-06-27T09:35:00.863Z,3.50
2018-06-27T09:38:04.086Z,3.77
2018-06-27T09:41:07.292Z,4.40
2018-06-27T09:44:10.553Z,4.50
2018-06-27T09:47:13.754Z,3.70
2018-06-27T09:50:16.954Z,3.13
2018-06-27T09:53:20.146Z,3.80
2018-06-27T09:56:23.986Z,4.43
2018-06-27T09:59:27.196Z,2.90
2018-06-27T10:02:30.127Z,4.40
2018-06-27T10:05:33.594Z,2.97
2018-06-27T10:08:36.619Z,3.00
2018-06-27T10:11:39.999Z,2.83
2018-06-27T10:14:43.161Z,2.53
2018-06-27T10:17:46.133Z,3.33
2018-06-27T10:20:49.366Z,2.47
2018-06-27T10:23:52.681Z,2.80
2018-06-27T10:26:55.939Z,2.33
2018-06-27T10:29:59.215Z,2.33
2018-06-27T10:33:02.524Z,2.63
2018-06-27T10:36:05.807Z,6.17
2018-06-27T10:39:10.307Z,2.80
2018-06-27T10:42:13.480Z,4.03
2018-06-27T10:45:16.675Z,2.90
2018-06-27T10:48:19.834Z,2.40
2018-06-27T10:51:23.102Z,2.40
2018-06-27T10:54:26.279Z,2.77
2018-06-27T10:57:29.410Z,3.53
2018-06-27T11:00:32.590Z,3.43
2018-06-27T11:03:42.307Z,6.23
2018-06-27T11:06:45.498Z,2.47
2018-06-27T11:09:48.693Z,2.20
2018-06-27T11:12:51.942Z,2.20
2018-06-27T11:15:55.190Z,2.77
2018-06-27T11:18:58.361Z,2.43
2018-06-27T11:22:01.540Z,1.93
2018-06-27T11:25:04.956Z,1.93
2018-06-27T11:28:07.927Z,2.10
2018-06-27T11:31:11.222Z,2.63
2018-06-27T11:34:14.475Z,2.93
2018-06-27T11:37:17.686Z,3.30
2018-06-27T11:40:20.835Z,2.83
2018-06-27T11:43:24.089Z,2.10
2018-06-27T11:46:27.022Z,2.57
2018-06-27T11:49:30.180Z,3.17
2018-06-27T11:52:33.318Z,2.20
2018-06-27T11:55:36.590Z,2.00
2018-06-27T11:58:39.782Z,4.53
2018-06-27T12:01:42.947Z,2.17
2018-06-27T12:04:45.896Z,2.60
2018-06-27T12:07:49.063Z,2.20
2018-06-27T12:10:52.274Z,3.17
2018-06-27T12:13:55.461Z,2.10
2018-06-27T12:16:58.728Z,2.20
2018-06-27T12:20:01.978Z,2.20
2018-06-27T12:23:05.248Z,2.50
2018-06-27T12:26:08.495Z,2.23
2018-06-27T12:29:11.658Z,2.20
2018-06-27T12:32:14.845Z,2.20
2018-06-27T12:35:18.678Z,2.50
2018-06-27T12:38:21.843Z,2.53
2018-06-27T12:41:24.946Z,2.43
2018-06-27T12:44:28.195Z,2.30
2018-06-27T12:47:31.134Z,2.57
2018-06-27T12:50:34.396Z,2.27
2018-06-27T12:53:37.538Z,2.40
2018-06-27T12:56:40.435Z,2.57
2018-06-27T12:59:43.720Z,2.47
2018-06-27T13:02:46.906Z,2.33
2018-06-27T13:05:50.206Z,5.17
2018-06-27T13:08:53.162Z,2.23
2018-06-27T13:11:56.336Z,2.10
2018-06-27T13:14:59.546Z,1.93
2018-06-27T13:18:02.886Z,2.07
2018-06-27T13:21:05.809Z,1.73
2018-06-27T13:24:09.018Z,1.93
2018-06-27T13:27:12.247Z,1.60
2018-06-27T13:30:15.438Z,2.17
2018-06-27T13:33:18.655Z,2.43
2018-06-27T13:36:21.607Z,2.77
2018-06-27T13:39:24.818Z,2.13
2018-06-27T13:42:27.994Z,2.30
2018-06-27T13:45:31.175Z,1.80
2018-06-27T13:48:34.355Z,2.83
2018-06-27T13:51:37.500Z,2.03
2018-06-27T13:54:43.102Z,2.17
2018-06-27T13:57:46.242Z,1.90
2018-06-27T14:00:49.419Z,2.03
2018-06-27T14:03:52.574Z,1.93
2018-06-27T14:06:55.781Z,3.40
2018-06-27T14:09:58.930Z,2.00
2018-06-27T14:13:02.098Z,2.00
2018-06-27T14:16:05.643Z,1.70
2018-06-27T14:19:08.783Z,1.80
2018-06-27T14:22:11.950Z,2.67
2018-06-27T14:25:15.080Z,1.70
2018-06-27T14:28:18.194Z,1.80
2018-06-27T14:31:21.363Z,3.63
2018-06-27T14:34:24.520Z,1.80
2018-06-27T14:37:27.734Z,3.13
2018-06-27T14:40:30.922Z,3.50
2018-06-27T14:43:34.170Z,2.80
2018-06-27T14:46:37.519Z,2.77
2018-06-27T14:49:40.715Z,2.40
2018-06-27T14:52:44.003Z,2.10
2018-06-27T14:55:47.182Z,1.90
2018-06-27T14:58:50.431Z,3.50
2018-06-27T15:01:53.481Z,1.80
2018-06-27T15:04:56.702Z,1.90
2018-06-27T15:07:59.997Z,1.90
2018-06-27T15:11:03.211Z,1.90
2018-06-27T15:14:06.103Z,2.60
2018-06-27T15:17:09.069Z,2.30
2018-06-27T15:20:12.278Z,3.43
2018-06-27T15:23:15.245Z,1.83
2018-06-27T15:26:18.475Z,1.70
2018-06-27T15:29:21.705Z,1.83
2018-06-27T15:32:24.926Z,1.90
2018-06-27T15:35:28.322Z,5.13
2018-06-27T15:38:31.402Z,2.93
2018-06-27T15:41:34.698Z,1.90
2018-06-27T15:44:37.863Z,1.90
2018-06-27T15:47:41.049Z,2.07
2018-06-27T15:50:44.322Z,2.17
2018-06-27T15:53:47.679Z,1.80
2018-06-27T15:56:50.943Z,2.87
2018-06-27T15:59:55.450Z,2.00
2018-06-27T16:02:58.426Z,2.00
2018-06-27T16:06:01.626Z,1.80
2018-06-27T16:09:07.060Z,2.33
2018-06-27T16:12:10.306Z,1.80
2018-06-27T16:15:13.470Z,2.00
2018-06-27T16:18:16.703Z,2.37
2018-06-27T16:21:19.906Z,1.80
2018-06-27T16:24:23.079Z,2.63
2018-06-27T16:27:26.320Z,2.50
2018-06-27T16:30:29.566Z,1.70
2018-06-27T16:33:32.750Z,1.57
2018-06-27T16:36:36.273Z,2.00
2018-06-27T16:39:39.499Z,3.17
2018-06-27T16:42:42.734Z,1.50
2018-06-27T16:45:45.946Z,1.80
2018-06-27T16:48:49.063Z,1.90
2018-06-27T16:51:52.225Z,2.27
2018-06-27T16:54:55.360Z,2.80
2018-06-27T16:57:58.583Z,1.80
2018-06-27T17:01:01.736Z,1.80
2018-06-27T17:04:08.573Z,1.70
2018-06-27T17:07:11.739Z,1.93
2018-06-27T17:10:14.961Z,2.20
2018-06-27T17:13:18.203Z,1.83
2018-06-27T17:16:21.411Z,4.13
2018-06-27T17:19:24.458Z,2.53
2018-06-27T17:22:27.949Z,2.17
2018-06-27T17:25:31.164Z,1.80
2018-06-27T17:28:34.498Z,1.87
2018-06-27T17:31:44.076Z,2.97
2018-06-27T17:38:08.688Z,3.13
2018-06-27T17:41:11.771Z,1.70
2018-06-27T17:44:14.926Z,1.60
2018-06-27T17:47:18.091Z,1.70
2018-06-27T17:50:21.234Z,1.77
2018-06-27T17:53:24.395Z,2.90
2018-06-27T17:56:27.603Z,1.70
2018-06-27T17:59:30.926Z,1.67
2018-06-27T18:02:33.917Z,1.80
2018-06-27T18:05:36.915Z,2.10
2018-06-27T18:08:40.153Z,1.67
2018-06-27T18:11:43.334Z,1.70
2018-06-27T18:14:46.474Z,2.30
2018-06-27T18:17:49.658Z,2.00
2018-06-27T18:21:12.031Z,1.97
2018-06-27T18:24:15.407Z,1.70
2018-06-27T18:27:18.554Z,1.80
2018-06-27T18:30:21.724Z,2.37
2018-06-27T18:33:25.043Z,3.57
2018-06-27T18:36:28.335Z,1.70
2018-06-27T18:39:31.591Z,1.50
2018-06-27T18:42:34.537Z,1.80
2018-06-27T18:45:37.810Z,1.67
2018-06-27T18:48:41.105Z,1.50
2018-06-27T18:51:44.323Z,5.00
2018-06-27T18:54:47.570Z,1.90
2018-06-27T18:57:50.791Z,3.30
2018-06-27T19:00:53.959Z,1.80
2018-06-27T19:03:56.922Z,2.90
2018-06-27T19:07:00.088Z,2.07
2018-06-27T19:10:03.582Z,2.10
2018-06-27T19:13:06.799Z,1.60
2018-06-27T19:16:10.042Z,1.60
2018-06-27T19:19:13.275Z,1.90
2018-06-27T19:22:16.578Z,1.70
2018-06-27T19:25:19.943Z,2.80
2018-06-27T19:28:23.184Z,2.27
2018-06-27T19:31:26.479Z,3.40
2018-06-27T19:34:29.428Z,2.20
2018-06-27T19:37:32.739Z,2.07
2018-06-27T19:40:35.854Z,3.53
2018-06-27T19:43:38.938Z,5.97
2018-06-27T19:46:42.001Z,3.43
2018-06-27T19:49:45.068Z,1.80
2018-06-27T19:52:48.145Z,1.70
2018-06-27T19:55:51.032Z,1.97
2018-06-27T19:58:54.110Z,1.90
2018-06-27T20:01:56.973Z,2.97
2018-06-27T20:05:01.114Z,2.00
2018-06-27T20:08:04.198Z,2.60
2018-06-27T20:11:07.071Z,1.90
2018-06-27T20:14:10.218Z,2.23
2018-06-27T20:17:17.279Z,1.80
2018-06-27T20:20:20.142Z,2.00
2018-06-27T20:23:23.325Z,2.40
2018-06-27T20:26:26.390Z,3.50
2018-06-27T20:29:29.458Z,1.97
2018-06-27T20:32:32.507Z,2.23
2018-06-27T20:35:35.605Z,2.50
2018-06-27T20:38:38.665Z,2.00
2018-06-27T20:41:41.774Z,2.23
2018-06-27T20:44:44.866Z,2.33
2018-06-27T20:47:47.914Z,2.23
2018-06-27T20:50:51.002Z,3.17
2018-06-27T20:53:54.064Z,2.37
2018-06-27T20:56:59.029Z,2.63
2018-06-27T21:00:02.127Z,2.63
2018-06-27T21:03:05.282Z,2.17
2018-06-27T21:06:08.377Z,2.43
2018-06-27T21:09:11.970Z,2.00
2018-06-27T21:12:15.050Z,2.50
2018-06-27T21:15:18.130Z,2.50
2018-06-27T21:18:21.198Z,3.77
2018-06-27T21:21:24.282Z,2.20
2018-06-27T21:24:27.379Z,2.23
2018-06-27T21:27:30.445Z,2.30
2018-06-27T21:30:33.538Z,2.93
2018-06-27T21:33:36.612Z,3.57
2018-06-27T21:36:41.898Z,2.70
2018-06-27T21:39:44.981Z,3.13
2018-06-27T21:42:48.052Z,2.17
2018-06-27T21:45:51.145Z,2.77
2018-06-27T21:48:54.239Z,3.37
2018-06-27T21:51:58.090Z,3.77
2018-06-27T21:55:01.288Z,2.13
2018-06-27T21:58:04.887Z,2.33
2018-06-27T22:01:08.798Z,2.70
2018-06-27T22:04:11.878Z,2.83
2018-06-27T22:07:14.949Z,2.73
2018-06-27T22:10:18.030Z,2.67
2018-06-27T22:13:21.098Z,2.47
2018-06-27T22:16:24.235Z,3.23
2018-06-27T22:19:27.345Z,4.43
2018-06-27T22:22:30.414Z,3.00
2018-06-27T22:25:33.479Z,2.53
2018-06-27T22:28:36.529Z,2.70
2018-06-27T22:35:09.609Z,3.27
2018-06-27T22:38:12.678Z,2.90
2018-06-27T22:41:15.761Z,2.70
2018-06-27T22:44:18.926Z,3.90
2018-06-27T22:47:21.997Z,6.10
2018-06-27T22:50:25.192Z,3.77
2018-06-27T22:53:28.273Z,4.57
2018-06-27T22:56:31.346Z,2.80
2018-06-27T22:59:34.405Z,3.87
2018-06-27T23:02:37.554Z,5.90
2018-06-27T23:05:40.614Z,2.80
2018-06-27T23:08:43.690Z,3.87
2018-06-27T23:11:46.767Z,5.00
2018-06-27T23:14:49.858Z,3.37
2018-06-27T23:17:52.829Z,3.10
2018-06-27T23:20:55.923Z,3.90
2018-06-27T23:23:58.969Z,3.07
2018-06-27T23:27:02.060Z,5.03
2018-06-27T23:30:05.642Z,3.57
2018-06-27T23:33:08.721Z,2.87
2018-06-27T23:36:11.786Z,4.07
2018-06-27T23:39:14.845Z,2.90
2018-06-27T23:42:17.926Z,3.40
2018-06-27T23:45:21.029Z,3.00
2018-06-27T23:48:24.088Z,3.10
2018-06-27T23:51:27.179Z,3.30
2018-06-27T23:54:30.261Z,3.60
2018-06-27T23:57:33.382Z,5.83
